sensor_id;sensor_type;location;lat;lon;timestamp;temperature;humidity
5023;DHT22;2530;47.990;7.866;2024-02-16T00:00:44;10.30;99.90
5023;DHT22;2530;47.990;7.866;2024-02-16T00:03:12;10.30;99.90
5023;DHT22;2530;47.990;7.866;2024-02-16T00:05:37;10.30;99.90
5023;DHT22;2530;47.990;7.866;2024-02-16T00:08:03;10.30;99.90
5023;DHT22;2530;47.990;7.866;2024-02-16T00:10:29;10.20;99.90
5023;DHT22;2530;47.990;7.866;2024-02-16T00:12:54;10.20;99.90
5023;DHT22;2530;47.990;7.866;2024-02-16T00:15:20;10.20;99.90
5023;DHT22;2530;47.990;7.866;2024-02-16T00:17:45;10.20;99.90
5023;DHT22;2530;47.990;7.866;2024-02-16T00:20:11;10.20;99.90
5023;DHT22;2530;47.990;7.866;2024-02-16T00:22:39;10.20;99.90
5023;DHT22;2530;47.990;7.866;2024-02-16T00:25:05;10.30;99.90
5023;DHT22;2530;47.990;7.866;2024-02-16T00:27:31;10.40;99.90
5023;DHT22;2530;47.990;7.866;2024-02-16T00:29:56;10.40;99.90
5023;DHT22;2530;47.990;7.866;2024-02-16T00:32:22;10.50;99.90
5023;DHT22;2530;47.990;7.866;2024-02-16T00:34:50;10.50;99.90
5023;DHT22;2530;47.990;7.866;2024-02-16T00:37:17;10.40;99.90
5023;DHT22;2530;47.990;7.866;2024-02-16T00:39:43;10.40;99.90
5023;DHT22;2530;47.990;7.866;2024-02-16T00:42:08;10.40;99.90
5023;DHT22;2530;47.990;7.866;2024-02-16T00:44:34;10.30;99.90
5023;DHT22;2530;47.990;7.866;2024-02-16T00:47:00;10.40;99.90
5023;DHT22;2530;47.990;7.866;2024-02-16T00:49:25;10.30;99.90
5023;DHT22;2530;47.990;7.866;2024-02-16T00:51:51;10.30;99.90
5023;DHT22;2530;47.990;7.866;2024-02-16T00:54:17;10.40;99.90
5023;DHT22;2530;47.990;7.866;2024-02-16T00:56:43;10.30;99.90
5023;DHT22;2530;47.990;7.866;2024-02-16T00:59:08;10.30;99.90
5023;DHT22;2530;47.990;7.866;2024-02-16T01:01:35;10.40;99.90
5023;DHT22;2530;47.990;7.866;2024-02-16T01:04:01;10.50;99.90
5023;DHT22;2530;47.990;7.866;2024-02-16T01:06:28;10.50;99.90
5023;DHT22;2530;47.990;7.866;2024-02-16T01:08:53;10.40;99.90
5023;DHT22;2530;47.990;7.866;2024-02-16T01:11:19;10.30;99.90
5023;DHT22;2530;47.990;7.866;2024-02-16T01:13:46;10.40;99.90
5023;DHT22;2530;47.990;7.866;2024-02-16T01:16:11;10.40;99.90
5023;DHT22;2530;47.990;7.866;2024-02-16T01:18:37;10.40;99.90
5023;DHT22;2530;47.990;7.866;2024-02-16T01:21:03;10.40;99.90
5023;DHT22;2530;47.990;7.866;2024-02-16T01:23:29;10.40;99.90
5023;DHT22;2530;47.990;7.866;2024-02-16T01:25:54;10.40;99.90
5023;DHT22;2530;47.990;7.866;2024-02-16T01:28:20;10.40;99.90
5023;DHT22;2530;47.990;7.866;2024-02-16T01:30:45;10.40;99.90
5023;DHT22;2530;47.990;7.866;2024-02-16T01:33:11;10.40;99.90
5023;DHT22;2530;47.990;7.866;2024-02-16T01:35:37;10.30;99.90
5023;DHT22;2530;47.990;7.866;2024-02-16T01:38:02;10.40;99.90
5023;DHT22;2530;47.990;7.866;2024-02-16T01:40:28;10.40;99.90
5023;DHT22;2530;47.990;7.866;2024-02-16T01:42:54;10.30;99.90
5023;DHT22;2530;47.990;7.866;2024-02-16T01:45:20;10.30;99.90
5023;DHT22;2530;47.990;7.866;2024-02-16T01:47:47;10.40;99.90
5023;DHT22;2530;47.990;7.866;2024-02-16T01:50:15;10.40;99.90
5023;DHT22;2530;47.990;7.866;2024-02-16T01:52:45;10.40;99.90
5023;DHT22;2530;47.990;7.866;2024-02-16T01:55:12;10.50;99.90
5023;DHT22;2530;47.990;7.866;2024-02-16T01:57:46;10.50;99.90
5023;DHT22;2530;47.990;7.866;2024-02-16T02:00:12;10.50;99.90
5023;DHT22;2530;47.990;7.866;2024-02-16T02:02:40;10.50;99.90
5023;DHT22;2530;47.990;7.866;2024-02-16T02:05:06;10.50;99.90
5023;DHT22;2530;47.990;7.866;2024-02-16T02:07:32;10.50;99.90
5023;DHT22;2530;47.990;7.866;2024-02-16T02:09:58;10.50;99.90
5023;DHT22;2530;47.990;7.866;2024-02-16T02:12:23;10.40;99.90
5023;DHT22;2530;47.990;7.866;2024-02-16T02:14:50;10.40;99.90
5023;DHT22;2530;47.990;7.866;2024-02-16T02:17:16;10.30;99.90
5023;DHT22;2530;47.990;7.866;2024-02-16T02:19:42;10.20;99.90
5023;DHT22;2530;47.990;7.866;2024-02-16T02:22:20;10.20;99.90
5023;DHT22;2530;47.990;7.866;2024-02-16T02:24:47;10.30;99.90
5023;DHT22;2530;47.990;7.866;2024-02-16T02:27:13;10.30;99.90
5023;DHT22;2530;47.990;7.866;2024-02-16T02:29:39;10.30;99.90
5023;DHT22;2530;47.990;7.866;2024-02-16T02:32:06;10.30;99.90
5023;DHT22;2530;47.990;7.866;2024-02-16T02:34:31;10.30;99.90
5023;DHT22;2530;47.990;7.866;2024-02-16T02:36:57;10.30;99.90
5023;DHT22;2530;47.990;7.866;2024-02-16T02:39:23;10.30;99.90
5023;DHT22;2530;47.990;7.866;2024-02-16T02:41:48;10.30;99.90
5023;DHT22;2530;47.990;7.866;2024-02-16T02:44:14;10.30;99.90
5023;DHT22;2530;47.990;7.866;2024-02-16T02:46:39;10.30;99.90
5023;DHT22;2530;47.990;7.866;2024-02-16T02:49:05;10.30;99.90
5023;DHT22;2530;47.990;7.866;2024-02-16T02:51:30;10.40;99.90
5023;DHT22;2530;47.990;7.866;2024-02-16T02:53:56;10.40;99.90
5023;DHT22;2530;47.990;7.866;2024-02-16T02:56:22;10.40;99.90
5023;DHT22;2530;47.990;7.866;2024-02-16T02:58:47;10.40;99.90
5023;DHT22;2530;47.990;7.866;2024-02-16T03:01:13;10.50;99.90
5023;DHT22;2530;47.990;7.866;2024-02-16T03:03:39;10.60;99.90
5023;DHT22;2530;47.990;7.866;2024-02-16T03:06:06;10.60;99.90
5023;DHT22;2530;47.990;7.866;2024-02-16T03:08:32;10.60;99.90
5023;DHT22;2530;47.990;7.866;2024-02-16T03:10:58;10.60;99.90
5023;DHT22;2530;47.990;7.866;2024-02-16T03:13:27;10.60;99.90
5023;DHT22;2530;47.990;7.866;2024-02-16T03:15:52;10.60;99.90
5023;DHT22;2530;47.990;7.866;2024-02-16T03:18:19;10.70;99.90
5023;DHT22;2530;47.990;7.866;2024-02-16T03:20:45;10.80;99.90
5023;DHT22;2530;47.990;7.866;2024-02-16T03:23:13;10.70;99.90
5023;DHT22;2530;47.990;7.866;2024-02-16T03:25:39;10.70;99.90
5023;DHT22;2530;47.990;7.866;2024-02-16T03:28:05;10.60;99.90
5023;DHT22;2530;47.990;7.866;2024-02-16T03:30:30;10.60;99.90
5023;DHT22;2530;47.990;7.866;2024-02-16T03:32:56;10.70;99.90
5023;DHT22;2530;47.990;7.866;2024-02-16T03:35:21;10.70;99.90
5023;DHT22;2530;47.990;7.866;2024-02-16T03:37:47;10.70;99.90
5023;DHT22;2530;47.990;7.866;2024-02-16T03:40:12;10.60;99.90
5023;DHT22;2530;47.990;7.866;2024-02-16T03:42:39;10.60;99.90
5023;DHT22;2530;47.990;7.866;2024-02-16T03:45:06;10.60;99.90
5023;DHT22;2530;47.990;7.866;2024-02-16T03:47:32;10.60;99.90
5023;DHT22;2530;47.990;7.866;2024-02-16T03:49:57;10.60;99.90
5023;DHT22;2530;47.990;7.866;2024-02-16T03:52:23;10.60;99.90
5023;DHT22;2530;47.990;7.866;2024-02-16T03:54:49;10.60;99.90
5023;DHT22;2530;47.990;7.866;2024-02-16T03:57:16;10.60;99.90
5023;DHT22;2530;47.990;7.866;2024-02-16T03:59:45;10.60;99.90
5023;DHT22;2530;47.990;7.866;2024-02-16T04:02:11;10.60;99.90
5023;DHT22;2530;47.990;7.866;2024-02-16T04:04:38;10.60;99.90
5023;DHT22;2530;47.990;7.866;2024-02-16T04:07:04;10.60;99.90
5023;DHT22;2530;47.990;7.866;2024-02-16T04:09:32;10.70;99.90
5023;DHT22;2530;47.990;7.866;2024-02-16T04:11:58;10.70;99.90
5023;DHT22;2530;47.990;7.866;2024-02-16T04:14:23;10.70;99.90
5023;DHT22;2530;47.990;7.866;2024-02-16T04:16:49;10.60;99.90
5023;DHT22;2530;47.990;7.866;2024-02-16T04:19:14;10.60;99.90
5023;DHT22;2530;47.990;7.866;2024-02-16T04:21:40;10.50;99.90
5023;DHT22;2530;47.990;7.866;2024-02-16T04:24:06;10.50;99.90
5023;DHT22;2530;47.990;7.866;2024-02-16T04:26:31;10.50;99.90
5023;DHT22;2530;47.990;7.866;2024-02-16T04:28:57;10.50;99.90
5023;DHT22;2530;47.990;7.866;2024-02-16T04:31:22;10.50;99.90
5023;DHT22;2530;47.990;7.866;2024-02-16T04:33:48;10.50;99.90
5023;DHT22;2530;47.990;7.866;2024-02-16T04:36:13;10.40;99.90
5023;DHT22;2530;47.990;7.866;2024-02-16T04:38:40;10.40;99.90
5023;DHT22;2530;47.990;7.866;2024-02-16T04:41:06;10.30;99.90
5023;DHT22;2530;47.990;7.866;2024-02-16T04:43:32;10.40;99.90
5023;DHT22;2530;47.990;7.866;2024-02-16T04:45:57;10.30;99.90
5023;DHT22;2530;47.990;7.866;2024-02-16T04:48:23;10.30;99.90
5023;DHT22;2530;47.990;7.866;2024-02-16T04:50:48;10.10;99.90
5023;DHT22;2530;47.990;7.866;2024-02-16T04:53:14;10.30;99.90
5023;DHT22;2530;47.990;7.866;2024-02-16T04:55:40;10.20;99.90
5023;DHT22;2530;47.990;7.866;2024-02-16T04:58:05;10.20;99.90
5023;DHT22;2530;47.990;7.866;2024-02-16T05:00:37;10.20;99.90
5023;DHT22;2530;47.990;7.866;2024-02-16T05:03:03;10.30;99.90
5023;DHT22;2530;47.990;7.866;2024-02-16T05:05:29;10.20;99.90
5023;DHT22;2530;47.990;7.866;2024-02-16T05:07:56;10.00;99.90
5023;DHT22;2530;47.990;7.866;2024-02-16T05:10:22;10.20;99.90
5023;DHT22;2530;47.990;7.866;2024-02-16T05:12:48;10.10;99.90
5023;DHT22;2530;47.990;7.866;2024-02-16T05:15:13;9.90;99.90
5023;DHT22;2530;47.990;7.866;2024-02-16T05:17:40;10.20;99.90
5023;DHT22;2530;47.990;7.866;2024-02-16T05:20:12;9.50;99.90
5023;DHT22;2530;47.990;7.866;2024-02-16T05:22:46;10.00;99.90
5023;DHT22;2530;47.990;7.866;2024-02-16T05:25:13;10.00;99.90
5023;DHT22;2530;47.990;7.866;2024-02-16T05:27:39;10.00;99.90
5023;DHT22;2530;47.990;7.866;2024-02-16T05:30:05;10.00;99.90
5023;DHT22;2530;47.990;7.866;2024-02-16T05:32:37;10.10;99.90
5023;DHT22;2530;47.990;7.866;2024-02-16T05:35:07;10.10;99.90
5023;DHT22;2530;47.990;7.866;2024-02-16T05:37:43;10.00;99.90
5023;DHT22;2530;47.990;7.866;2024-02-16T05:40:14;10.10;99.90
5023;DHT22;2530;47.990;7.866;2024-02-16T05:42:54;10.10;99.90
5023;DHT22;2530;47.990;7.866;2024-02-16T05:45:23;10.10;99.90
5023;DHT22;2530;47.990;7.866;2024-02-16T05:47:50;10.00;99.90
5023;DHT22;2530;47.990;7.866;2024-02-16T05:50:16;10.10;99.90
5023;DHT22;2530;47.990;7.866;2024-02-16T05:52:43;10.20;99.90
5023;DHT22;2530;47.990;7.866;2024-02-16T05:55:10;10.10;99.90
5023;DHT22;2530;47.990;7.866;2024-02-16T05:57:36;10.10;99.90
5023;DHT22;2530;47.990;7.866;2024-02-16T06:00:07;10.20;99.90
5023;DHT22;2530;47.990;7.866;2024-02-16T06:02:33;10.20;99.90
5023;DHT22;2530;47.990;7.866;2024-02-16T06:05:02;10.10;99.90
5023;DHT22;2530;47.990;7.866;2024-02-16T06:07:29;10.20;99.90
5023;DHT22;2530;47.990;7.866;2024-02-16T06:09:55;10.10;99.90
5023;DHT22;2530;47.990;7.866;2024-02-16T06:12:21;10.20;99.90
5023;DHT22;2530;47.990;7.866;2024-02-16T06:14:47;10.20;99.90
5023;DHT22;2530;47.990;7.866;2024-02-16T06:17:14;10.20;99.90
5023;DHT22;2530;47.990;7.866;2024-02-16T06:19:40;10.30;99.90
5023;DHT22;2530;47.990;7.866;2024-02-16T06:22:06;10.30;99.90
5023;DHT22;2530;47.990;7.866;2024-02-16T06:24:33;10.20;99.90
5023;DHT22;2530;47.990;7.866;2024-02-16T06:26:59;10.20;99.90
5023;DHT22;2530;47.990;7.866;2024-02-16T06:29:24;10.20;99.90
5023;DHT22;2530;47.990;7.866;2024-02-16T06:31:50;10.20;99.90
5023;DHT22;2530;47.990;7.866;2024-02-16T06:34:16;10.30;99.90
5023;DHT22;2530;47.990;7.866;2024-02-16T06:36:42;10.30;99.90
5023;DHT22;2530;47.990;7.866;2024-02-16T06:39:08;10.40;99.90
5023;DHT22;2530;47.990;7.866;2024-02-16T06:41:34;10.30;99.90
5023;DHT22;2530;47.990;7.866;2024-02-16T06:44:00;10.30;99.90
5023;DHT22;2530;47.990;7.866;2024-02-16T06:46:25;10.30;99.90
5023;DHT22;2530;47.990;7.866;2024-02-16T06:48:53;10.30;99.90
5023;DHT22;2530;47.990;7.866;2024-02-16T06:51:24;10.30;99.90
5023;DHT22;2530;47.990;7.866;2024-02-16T06:53:50;10.30;99.90
5023;DHT22;2530;47.990;7.866;2024-02-16T06:56:16;10.30;99.90
5023;DHT22;2530;47.990;7.866;2024-02-16T06:58:43;10.30;99.90
5023;DHT22;2530;47.990;7.866;2024-02-16T07:01:09;10.30;99.90
5023;DHT22;2530;47.990;7.866;2024-02-16T07:03:34;10.40;99.90
5023;DHT22;2530;47.990;7.866;2024-02-16T07:06:04;10.40;99.90
5023;DHT22;2530;47.990;7.866;2024-02-16T07:08:29;10.40;99.90
5023;DHT22;2530;47.990;7.866;2024-02-16T07:10:55;10.40;99.90
5023;DHT22;2530;47.990;7.866;2024-02-16T07:13:22;10.40;99.90
5023;DHT22;2530;47.990;7.866;2024-02-16T07:15:47;10.50;99.90
5023;DHT22;2530;47.990;7.866;2024-02-16T07:18:13;10.60;99.90
5023;DHT22;2530;47.990;7.866;2024-02-16T07:20:39;10.40;99.90
5023;DHT22;2530;47.990;7.866;2024-02-16T07:23:05;10.50;99.90
5023;DHT22;2530;47.990;7.866;2024-02-16T07:25:30;10.40;99.90
5023;DHT22;2530;47.990;7.866;2024-02-16T07:27:56;10.30;99.90
5023;DHT22;2530;47.990;7.866;2024-02-16T07:30:22;10.50;99.90
5023;DHT22;2530;47.990;7.866;2024-02-16T07:32:50;10.30;99.90
5023;DHT22;2530;47.990;7.866;2024-02-16T07:35:18;10.50;99.90
5023;DHT22;2530;47.990;7.866;2024-02-16T07:37:43;10.80;99.90
5023;DHT22;2530;47.990;7.866;2024-02-16T07:40:09;10.80;99.90
5023;DHT22;2530;47.990;7.866;2024-02-16T07:42:39;10.80;99.90
5023;DHT22;2530;47.990;7.866;2024-02-16T07:45:05;10.90;99.90
5023;DHT22;2530;47.990;7.866;2024-02-16T07:47:32;11.00;99.90
5023;DHT22;2530;47.990;7.866;2024-02-16T07:49:57;11.00;99.90
5023;DHT22;2530;47.990;7.866;2024-02-16T07:52:23;11.00;99.90
5023;DHT22;2530;47.990;7.866;2024-02-16T07:54:48;11.00;99.90
5023;DHT22;2530;47.990;7.866;2024-02-16T07:57:15;11.20;99.90
5023;DHT22;2530;47.990;7.866;2024-02-16T07:59:41;11.40;99.90
5023;DHT22;2530;47.990;7.866;2024-02-16T08:02:07;11.40;99.90
5023;DHT22;2530;47.990;7.866;2024-02-16T08:04:34;11.50;99.90
5023;DHT22;2530;47.990;7.866;2024-02-16T08:07:00;11.40;99.90
5023;DHT22;2530;47.990;7.866;2024-02-16T08:09:26;11.20;99.90
5023;DHT22;2530;47.990;7.866;2024-02-16T08:11:52;11.50;99.90
5023;DHT22;2530;47.990;7.866;2024-02-16T08:14:17;11.80;99.90
5023;DHT22;2530;47.990;7.866;2024-02-16T08:16:43;11.70;99.90
5023;DHT22;2530;47.990;7.866;2024-02-16T08:19:08;12.60;99.90
5023;DHT22;2530;47.990;7.866;2024-02-16T08:21:34;12.80;99.90
5023;DHT22;2530;47.990;7.866;2024-02-16T08:23:59;13.70;99.90
5023;DHT22;2530;47.990;7.866;2024-02-16T08:26:25;14.20;99.90
5023;DHT22;2530;47.990;7.866;2024-02-16T08:28:50;14.50;99.90
5023;DHT22;2530;47.990;7.866;2024-02-16T08:31:17;14.70;99.90
5023;DHT22;2530;47.990;7.866;2024-02-16T08:33:44;14.40;99.90
5023;DHT22;2530;47.990;7.866;2024-02-16T08:36:10;14.10;99.90
5023;DHT22;2530;47.990;7.866;2024-02-16T08:38:39;14.70;99.90
5023;DHT22;2530;47.990;7.866;2024-02-16T08:41:04;14.60;99.90
5023;DHT22;2530;47.990;7.866;2024-02-16T08:43:30;15.20;99.90
5023;DHT22;2530;47.990;7.866;2024-02-16T08:45:55;15.50;99.90
5023;DHT22;2530;47.990;7.866;2024-02-16T08:48:22;15.20;99.90
5023;DHT22;2530;47.990;7.866;2024-02-16T08:50:47;15.30;99.90
5023;DHT22;2530;47.990;7.866;2024-02-16T08:53:15;15.20;99.90
5023;DHT22;2530;47.990;7.866;2024-02-16T08:55:41;15.60;99.90
5023;DHT22;2530;47.990;7.866;2024-02-16T08:58:10;15.70;99.90
5023;DHT22;2530;47.990;7.866;2024-02-16T09:00:35;15.40;99.90
5023;DHT22;2530;47.990;7.866;2024-02-16T09:03:01;15.70;99.90
5023;DHT22;2530;47.990;7.866;2024-02-16T09:05:31;15.70;99.90
5023;DHT22;2530;47.990;7.866;2024-02-16T09:07:57;16.70;99.90
5023;DHT22;2530;47.990;7.866;2024-02-16T09:10:22;16.00;99.90
5023;DHT22;2530;47.990;7.866;2024-02-16T09:12:48;17.40;99.90
5023;DHT22;2530;47.990;7.866;2024-02-16T09:15:13;15.90;99.90
5023;DHT22;2530;47.990;7.866;2024-02-16T09:17:39;15.90;99.90
5023;DHT22;2530;47.990;7.866;2024-02-16T09:20:05;15.90;99.90
5023;DHT22;2530;47.990;7.866;2024-02-16T09:22:33;15.90;99.90
5023;DHT22;2530;47.990;7.866;2024-02-16T09:24:59;15.90;99.90
5023;DHT22;2530;47.990;7.866;2024-02-16T09:27:25;15.80;99.90
5023;DHT22;2530;47.990;7.866;2024-02-16T09:29:51;15.60;99.90
5023;DHT22;2530;47.990;7.866;2024-02-16T09:32:17;15.70;99.90
5023;DHT22;2530;47.990;7.866;2024-02-16T09:34:43;15.90;99.90
5023;DHT22;2530;47.990;7.866;2024-02-16T09:37:08;17.60;99.90
5023;DHT22;2530;47.990;7.866;2024-02-16T09:39:34;15.90;99.90
5023;DHT22;2530;47.990;7.866;2024-02-16T09:42:00;15.90;99.90
5023;DHT22;2530;47.990;7.866;2024-02-16T09:44:26;15.60;99.90
5023;DHT22;2530;47.990;7.866;2024-02-16T09:46:54;15.70;99.90
5023;DHT22;2530;47.990;7.866;2024-02-16T09:49:20;16.10;99.90
5023;DHT22;2530;47.990;7.866;2024-02-16T09:51:45;16.10;99.90
5023;DHT22;2530;47.990;7.866;2024-02-16T09:54:11;16.10;99.90
5023;DHT22;2530;47.990;7.866;2024-02-16T09:56:37;16.10;99.90
5023;DHT22;2530;47.990;7.866;2024-02-16T09:59:02;16.10;99.90
5023;DHT22;2530;47.990;7.866;2024-02-16T10:01:28;16.00;99.90
5023;DHT22;2530;47.990;7.866;2024-02-16T10:04:05;16.10;99.90
5023;DHT22;2530;47.990;7.866;2024-02-16T10:06:31;16.00;99.90
5023;DHT22;2530;47.990;7.866;2024-02-16T10:08:56;16.10;99.90
5023;DHT22;2530;47.990;7.866;2024-02-16T10:11:24;15.90;99.90
5023;DHT22;2530;47.990;7.866;2024-02-16T10:13:59;16.40;99.90
5023;DHT22;2530;47.990;7.866;2024-02-16T10:16:25;16.20;99.90
5023;DHT22;2530;47.990;7.866;2024-02-16T10:19:07;16.20;99.90
5023;DHT22;2530;47.990;7.866;2024-02-16T10:21:35;16.20;99.90
5023;DHT22;2530;47.990;7.866;2024-02-16T10:24:08;16.10;99.90
5023;DHT22;2530;47.990;7.866;2024-02-16T10:26:37;16.40;99.90
5023;DHT22;2530;47.990;7.866;2024-02-16T10:29:05;15.90;99.90
5023;DHT22;2530;47.990;7.866;2024-02-16T10:31:31;16.10;99.90
5023;DHT22;2530;47.990;7.866;2024-02-16T10:34:02;15.50;99.90
5023;DHT22;2530;47.990;7.866;2024-02-16T10:36:32;16.30;99.90
5023;DHT22;2530;47.990;7.866;2024-02-16T10:38:58;15.70;99.90
5023;DHT22;2530;47.990;7.866;2024-02-16T10:41:27;16.80;99.90
5023;DHT22;2530;47.990;7.866;2024-02-16T10:43:56;15.60;99.90
5023;DHT22;2530;47.990;7.866;2024-02-16T10:46:23;16.00;99.90
5023;DHT22;2530;47.990;7.866;2024-02-16T10:48:51;15.60;99.90
5023;DHT22;2530;47.990;7.866;2024-02-16T10:51:40;15.90;99.90
5023;DHT22;2530;47.990;7.866;2024-02-16T10:54:05;16.00;99.90
5023;DHT22;2530;47.990;7.866;2024-02-16T10:56:35;15.90;99.90
5023;DHT22;2530;47.990;7.866;2024-02-16T10:59:09;15.90;99.90
5023;DHT22;2530;47.990;7.866;2024-02-16T11:01:42;15.70;99.90
5023;DHT22;2530;47.990;7.866;2024-02-16T11:04:13;16.00;99.90
5023;DHT22;2530;47.990;7.866;2024-02-16T11:06:46;15.90;99.90
5023;DHT22;2530;47.990;7.866;2024-02-16T11:09:23;15.50;99.90
5023;DHT22;2530;47.990;7.866;2024-02-16T11:11:53;15.90;99.90
5023;DHT22;2530;47.990;7.866;2024-02-16T11:14:18;15.90;99.90
5023;DHT22;2530;47.990;7.866;2024-02-16T11:16:45;15.90;99.90
5023;DHT22;2530;47.990;7.866;2024-02-16T11:19:11;16.20;99.90
5023;DHT22;2530;47.990;7.866;2024-02-16T11:21:36;16.00;99.90
5023;DHT22;2530;47.990;7.866;2024-02-16T11:24:08;15.80;99.90
5023;DHT22;2530;47.990;7.866;2024-02-16T11:26:42;15.90;99.90
5023;DHT22;2530;47.990;7.866;2024-02-16T11:29:09;15.90;99.90
5023;DHT22;2530;47.990;7.866;2024-02-16T11:31:35;16.00;99.90
5023;DHT22;2530;47.990;7.866;2024-02-16T11:34:01;16.10;99.90
5023;DHT22;2530;47.990;7.866;2024-02-16T11:36:27;16.10;99.90
5023;DHT22;2530;47.990;7.866;2024-02-16T11:38:52;16.30;99.90
5023;DHT22;2530;47.990;7.866;2024-02-16T11:41:18;16.30;99.90
5023;DHT22;2530;47.990;7.866;2024-02-16T11:43:46;16.20;99.90
5023;DHT22;2530;47.990;7.866;2024-02-16T11:46:15;16.00;99.90
5023;DHT22;2530;47.990;7.866;2024-02-16T11:48:42;17.10;99.90
5023;DHT22;2530;47.990;7.866;2024-02-16T11:51:08;16.30;99.90
5023;DHT22;2530;47.990;7.866;2024-02-16T11:53:34;15.60;99.90
5023;DHT22;2530;47.990;7.866;2024-02-16T11:55:59;16.10;99.90
5023;DHT22;2530;47.990;7.866;2024-02-16T11:58:26;16.30;99.90
5023;DHT22;2530;47.990;7.866;2024-02-16T12:00:52;16.30;99.90
5023;DHT22;2530;47.990;7.866;2024-02-16T12:03:24;16.30;99.90
5023;DHT22;2530;47.990;7.866;2024-02-16T12:05:51;16.10;99.90
5023;DHT22;2530;47.990;7.866;2024-02-16T12:08:17;16.20;99.90
5023;DHT22;2530;47.990;7.866;2024-02-16T12:10:42;15.90;99.90
5023;DHT22;2530;47.990;7.866;2024-02-16T12:13:09;16.20;99.90
5023;DHT22;2530;47.990;7.866;2024-02-16T12:15:37;16.20;99.90
5023;DHT22;2530;47.990;7.866;2024-02-16T12:18:03;16.20;99.90
5023;DHT22;2530;47.990;7.866;2024-02-16T12:20:30;16.30;99.90
5023;DHT22;2530;47.990;7.866;2024-02-16T12:22:56;16.20;99.90
5023;DHT22;2530;47.990;7.866;2024-02-16T12:25:24;15.80;99.90
5023;DHT22;2530;47.990;7.866;2024-02-16T12:27:50;15.70;99.90
5023;DHT22;2530;47.990;7.866;2024-02-16T12:30:16;16.00;99.90
5023;DHT22;2530;47.990;7.866;2024-02-16T12:32:41;15.90;99.90
5023;DHT22;2530;47.990;7.866;2024-02-16T12:35:07;15.70;99.90
5023;DHT22;2530;47.990;7.866;2024-02-16T12:37:36;15.70;99.90
5023;DHT22;2530;47.990;7.866;2024-02-16T12:40:03;15.70;99.90
5023;DHT22;2530;47.990;7.866;2024-02-16T12:42:28;15.70;99.90
5023;DHT22;2530;47.990;7.866;2024-02-16T12:44:54;15.60;99.90
5023;DHT22;2530;47.990;7.866;2024-02-16T12:47:20;15.60;99.90
5023;DHT22;2530;47.990;7.866;2024-02-16T12:49:46;15.50;99.90
5023;DHT22;2530;47.990;7.866;2024-02-16T12:52:20;15.50;99.90
5023;DHT22;2530;47.990;7.866;2024-02-16T12:54:47;15.30;99.90
5023;DHT22;2530;47.990;7.866;2024-02-16T12:57:13;15.30;99.90
5023;DHT22;2530;47.990;7.866;2024-02-16T12:59:38;15.50;99.90
5023;DHT22;2530;47.990;7.866;2024-02-16T13:02:04;15.60;99.90
5023;DHT22;2530;47.990;7.866;2024-02-16T13:04:30;15.60;99.90
5023;DHT22;2530;47.990;7.866;2024-02-16T13:06:57;15.70;99.90
5023;DHT22;2530;47.990;7.866;2024-02-16T13:09:23;15.60;99.90
5023;DHT22;2530;47.990;7.866;2024-02-16T13:11:48;15.40;99.90
5023;DHT22;2530;47.990;7.866;2024-02-16T13:14:20;15.70;99.90
5023;DHT22;2530;47.990;7.866;2024-02-16T13:16:45;15.60;99.90
5023;DHT22;2530;47.990;7.866;2024-02-16T13:19:11;15.60;99.90
5023;DHT22;2530;47.990;7.866;2024-02-16T13:21:37;15.50;99.90
5023;DHT22;2530;47.990;7.866;2024-02-16T13:24:02;15.60;99.90
5023;DHT22;2530;47.990;7.866;2024-02-16T13:26:28;15.50;99.90
5023;DHT22;2530;47.990;7.866;2024-02-16T13:28:53;15.30;99.90
5023;DHT22;2530;47.990;7.866;2024-02-16T13:31:20;15.70;99.90
5023;DHT22;2530;47.990;7.866;2024-02-16T13:33:45;15.70;99.90
5023;DHT22;2530;47.990;7.866;2024-02-16T13:36:12;15.80;99.90
5023;DHT22;2530;47.990;7.866;2024-02-16T13:38:38;15.80;99.90
5023;DHT22;2530;47.990;7.866;2024-02-16T13:41:04;15.70;99.90
5023;DHT22;2530;47.990;7.866;2024-02-16T13:43:30;15.70;99.90
5023;DHT22;2530;47.990;7.866;2024-02-16T13:45:56;15.50;99.90
5023;DHT22;2530;47.990;7.866;2024-02-16T13:48:24;15.70;99.90
5023;DHT22;2530;47.990;7.866;2024-02-16T13:50:50;15.80;99.90
5023;DHT22;2530;47.990;7.866;2024-02-16T13:53:17;16.00;99.90
5023;DHT22;2530;47.990;7.866;2024-02-16T13:55:43;16.00;99.90
5023;DHT22;2530;47.990;7.866;2024-02-16T13:58:13;16.10;99.90
5023;DHT22;2530;47.990;7.866;2024-02-16T14:00:38;16.10;99.90
5023;DHT22;2530;47.990;7.866;2024-02-16T14:03:09;16.20;99.90
5023;DHT22;2530;47.990;7.866;2024-02-16T14:05:38;16.30;99.90
5023;DHT22;2530;47.990;7.866;2024-02-16T14:08:04;16.70;99.90
5023;DHT22;2530;47.990;7.866;2024-02-16T14:10:31;16.80;99.90
5023;DHT22;2530;47.990;7.866;2024-02-16T14:12:59;16.60;99.90
5023;DHT22;2530;47.990;7.866;2024-02-16T14:15:25;17.10;99.90
5023;DHT22;2530;47.990;7.866;2024-02-16T14:17:51;16.60;99.90
5023;DHT22;2530;47.990;7.866;2024-02-16T14:20:16;16.50;99.90
5023;DHT22;2530;47.990;7.866;2024-02-16T14:22:42;16.50;99.90
5023;DHT22;2530;47.990;7.866;2024-02-16T14:25:08;16.40;99.90
5023;DHT22;2530;47.990;7.866;2024-02-16T14:27:36;16.10;99.90
5023;DHT22;2530;47.990;7.866;2024-02-16T14:30:03;15.70;99.90
5023;DHT22;2530;47.990;7.866;2024-02-16T14:32:29;15.70;99.90
5023;DHT22;2530;47.990;7.866;2024-02-16T14:34:55;15.60;99.90
5023;DHT22;2530;47.990;7.866;2024-02-16T14:37:20;15.50;99.90
5023;DHT22;2530;47.990;7.866;2024-02-16T14:39:46;15.40;99.90
5023;DHT22;2530;47.990;7.866;2024-02-16T14:42:12;15.90;99.90
5023;DHT22;2530;47.990;7.866;2024-02-16T14:44:37;15.20;99.90
5023;DHT22;2530;47.990;7.866;2024-02-16T14:47:03;15.10;99.90
5023;DHT22;2530;47.990;7.866;2024-02-16T14:49:28;15.20;99.90
5023;DHT22;2530;47.990;7.866;2024-02-16T14:51:56;14.70;99.90
5023;DHT22;2530;47.990;7.866;2024-02-16T14:54:22;15.00;99.90
5023;DHT22;2530;47.990;7.866;2024-02-16T14:56:51;14.70;99.90
5023;DHT22;2530;47.990;7.866;2024-02-16T14:59:18;14.90;99.90
5023;DHT22;2530;47.990;7.866;2024-02-16T15:01:43;15.00;99.90
5023;DHT22;2530;47.990;7.866;2024-02-16T15:04:09;15.00;99.90
5023;DHT22;2530;47.990;7.866;2024-02-16T15:06:35;14.70;99.90
5023;DHT22;2530;47.990;7.866;2024-02-16T15:09:01;15.00;99.90
5023;DHT22;2530;47.990;7.866;2024-02-16T15:11:30;15.20;99.90
5023;DHT22;2530;47.990;7.866;2024-02-16T15:13:56;14.80;99.90
5023;DHT22;2530;47.990;7.866;2024-02-16T15:16:21;14.90;99.90
5023;DHT22;2530;47.990;7.866;2024-02-16T15:18:47;14.90;99.90
5023;DHT22;2530;47.990;7.866;2024-02-16T15:21:12;15.00;99.90
5023;DHT22;2530;47.990;7.866;2024-02-16T15:23:38;14.90;99.90
5023;DHT22;2530;47.990;7.866;2024-02-16T15:26:03;14.70;99.90
5023;DHT22;2530;47.990;7.866;2024-02-16T15:28:31;15.00;99.90
5023;DHT22;2530;47.990;7.866;2024-02-16T15:30:57;14.90;99.90
5023;DHT22;2530;47.990;7.866;2024-02-16T15:33:22;14.80;99.90
5023;DHT22;2530;47.990;7.866;2024-02-16T15:35:48;14.60;99.90
5023;DHT22;2530;47.990;7.866;2024-02-16T15:38:13;15.00;99.90
5023;DHT22;2530;47.990;7.866;2024-02-16T15:40:39;14.40;99.90
5023;DHT22;2530;47.990;7.866;2024-02-16T15:43:05;15.00;99.90
5023;DHT22;2530;47.990;7.866;2024-02-16T15:45:36;14.90;99.90
5023;DHT22;2530;47.990;7.866;2024-02-16T15:48:10;14.90;99.90
5023;DHT22;2530;47.990;7.866;2024-02-16T15:50:37;14.80;99.90
5023;DHT22;2530;47.990;7.866;2024-02-16T15:53:03;14.50;99.90
5023;DHT22;2530;47.990;7.866;2024-02-16T15:55:29;14.70;99.90
5023;DHT22;2530;47.990;7.866;2024-02-16T15:57:56;14.70;99.90